createdAt,value
2023-06-01T00:00:50.129Z,20.16
2023-06-01T00:03:23.371Z,20.15
2023-06-01T00:05:36.153Z,20.10
2023-06-01T00:07:49.216Z,20.09
2023-06-01T00:10:02.345Z,20.07
2023-06-01T00:12:15.830Z,20.05
2023-06-01T00:14:28.943Z,20.05
2023-06-01T00:16:42.114Z,20.09
2023-06-01T00:18:55.397Z,20.11
2023-06-01T00:21:08.286Z,20.12
2023-06-01T00:23:22.192Z,20.13
2023-06-01T00:25:34.778Z,20.11
2023-06-01T00:27:47.291Z,20.07
2023-06-01T00:29:59.920Z,20.04
2023-06-01T00:32:13.891Z,20.00
2023-06-01T00:34:26.968Z,19.97
2023-06-01T00:36:39.888Z,19.95
2023-06-01T00:38:53.321Z,19.93
2023-06-01T00:41:05.952Z,19.93
2023-06-01T00:43:18.535Z,19.93
2023-06-01T00:45:31.501Z,19.91
2023-06-01T00:47:47.466Z,19.91
2023-06-01T00:50:00.223Z,19.93
2023-06-01T00:52:14.251Z,19.95
2023-06-01T00:54:27.513Z,19.96
2023-06-01T00:56:40.322Z,19.97
2023-06-01T00:58:53.654Z,19.99
2023-06-01T01:01:06.673Z,20.03
2023-06-01T01:03:19.707Z,20.05
2023-06-01T01:05:32.711Z,20.08
2023-06-01T01:07:55.436Z,20.11
2023-06-01T01:10:13.874Z,20.12
2023-06-01T01:12:31.513Z,20.11
2023-06-01T01:14:50.706Z,20.09
2023-06-01T01:17:13.372Z,20.06
2023-06-01T01:19:44.973Z,20.03
2023-06-01T01:22:10.083Z,20.02
2023-06-01T01:24:47.967Z,20.05
2023-06-01T01:27:19.418Z,20.05
2023-06-01T01:29:34.904Z,20.05
2023-06-01T01:31:50.054Z,20.04
2023-06-01T01:34:03.645Z,20.03
2023-06-01T01:36:19.374Z,20.02
2023-06-01T01:38:32.349Z,20.00
2023-06-01T01:40:44.986Z,19.99
2023-06-01T01:42:59.148Z,19.98
2023-06-01T01:45:13.822Z,19.96
2023-06-01T01:47:40.526Z,19.95
2023-06-01T01:49:57.774Z,19.93
2023-06-01T01:52:16.749Z,19.94
2023-06-01T01:54:32.049Z,19.92
2023-06-01T01:56:44.741Z,19.92
2023-06-01T01:58:58.242Z,19.91
2023-06-01T02:01:12.106Z,19.89
2023-06-01T02:03:25.347Z,19.87
2023-06-01T02:05:38.608Z,19.85
2023-06-01T02:07:51.297Z,19.82
2023-06-01T02:10:04.063Z,19.79
2023-06-01T02:12:17.455Z,19.77
2023-06-01T02:14:30.457Z,19.75
2023-06-01T02:16:43.618Z,19.72
2023-06-01T02:18:59.799Z,19.65
2023-06-01T02:21:12.893Z,19.62
2023-06-01T02:23:25.688Z,19.60
2023-06-01T02:25:39.233Z,19.59
2023-06-01T02:27:51.875Z,19.57
2023-06-01T02:30:04.904Z,19.53
2023-06-01T02:32:17.750Z,19.50
2023-06-01T02:34:30.380Z,19.47
2023-06-01T02:36:43.689Z,19.45
2023-06-01T02:38:57.300Z,19.44
2023-06-01T02:41:10.177Z,19.42
2023-06-01T02:43:23.230Z,19.39
2023-06-01T02:45:36.015Z,19.36
2023-06-01T02:47:48.612Z,19.32
2023-06-01T02:50:01.533Z,19.26
2023-06-01T02:52:15.613Z,19.22
2023-06-01T02:54:28.748Z,19.18
2023-06-01T02:56:44.465Z,19.13
2023-06-01T02:58:56.870Z,19.08
2023-06-01T03:01:14.885Z,19.03
2023-06-01T03:03:27.565Z,18.96
2023-06-01T03:05:42.175Z,18.89
2023-06-01T03:08:18.904Z,18.80
2023-06-01T03:10:31.577Z,18.71
2023-06-01T03:12:50.549Z,18.62
2023-06-01T03:15:03.541Z,18.55
2023-06-01T03:17:16.054Z,18.48
2023-06-01T03:19:28.981Z,18.41
2023-06-01T03:21:44.142Z,18.35
2023-06-01T03:23:56.917Z,18.29
2023-06-01T03:26:10.583Z,18.24
2023-06-01T03:28:23.467Z,18.19
2023-06-01T03:30:36.112Z,18.13
2023-06-01T03:32:49.749Z,18.08
2023-06-01T03:35:02.981Z,18.03
2023-06-01T03:37:16.411Z,17.99
2023-06-01T03:39:29.360Z,17.92
2023-06-01T03:41:43.486Z,17.86
2023-06-01T03:43:56.225Z,17.81
2023-06-01T03:46:08.913Z,17.74
2023-06-01T03:48:21.494Z,17.69
2023-06-01T03:50:34.307Z,17.64
2023-06-01T03:52:47.627Z,17.59
2023-06-01T03:55:00.795Z,17.52
2023-06-01T03:57:34.459Z,17.43
2023-06-01T03:59:48.681Z,17.38
2023-06-01T04:02:01.982Z,17.35
2023-06-01T04:04:18.737Z,17.30
2023-06-01T04:06:31.684Z,17.23
2023-06-01T04:08:50.597Z,17.16
2023-06-01T04:11:03.631Z,17.09
2023-06-01T04:13:16.516Z,17.01
2023-06-01T04:15:29.250Z,16.96
2023-06-01T04:17:44.987Z,16.89
2023-06-01T04:19:58.460Z,16.84
2023-06-01T04:22:12.576Z,16.78
2023-06-01T04:24:25.830Z,16.70
2023-06-01T04:26:38.511Z,16.64
2023-06-01T04:28:51.948Z,16.59
2023-06-01T04:31:05.368Z,16.53
2023-06-01T04:33:18.562Z,16.46
2023-06-01T04:35:31.645Z,16.40
2023-06-01T04:37:46.323Z,16.35
2023-06-01T04:39:58.827Z,16.30
2023-06-01T04:42:15.779Z,16.24
2023-06-01T04:44:28.621Z,16.16
2023-06-01T04:46:42.247Z,16.07
2023-06-01T04:48:55.440Z,15.99
2023-06-01T04:51:09.355Z,15.90
2023-06-01T04:53:21.742Z,15.83
2023-06-01T04:55:35.706Z,15.81
2023-06-01T04:57:48.271Z,15.78
2023-06-01T05:00:02.811Z,15.71
2023-06-01T05:02:16.145Z,15.70
2023-06-01T05:04:28.760Z,15.65
2023-06-01T05:06:41.722Z,15.59
2023-06-01T05:08:54.600Z,15.54
2023-06-01T05:11:13.044Z,15.50
2023-06-01T05:13:25.604Z,15.46
2023-06-01T05:15:38.314Z,15.42
2023-06-01T05:17:51.356Z,15.37
2023-06-01T05:20:07.681Z,15.33
2023-06-01T05:22:21.066Z,15.29
2023-06-01T05:24:33.989Z,15.25
2023-06-01T05:26:47.814Z,15.20
2023-06-01T05:29:00.584Z,15.16
2023-06-01T05:31:14.083Z,15.12
2023-06-01T05:33:33.360Z,15.08
2023-06-01T05:35:46.305Z,15.03
2023-06-01T05:38:03.001Z,14.98
2023-06-01T05:40:17.687Z,14.94
2023-06-01T05:42:31.679Z,14.91
2023-06-01T05:44:44.291Z,14.87
2023-06-01T05:46:57.833Z,14.82
2023-06-01T05:49:10.883Z,14.77
2023-06-01T05:51:24.779Z,14.70
2023-06-01T05:53:38.471Z,14.65
2023-06-01T05:55:52.862Z,14.58
2023-06-01T05:58:06.539Z,14.52
2023-06-01T06:00:21.175Z,14.47
2023-06-01T06:02:34.196Z,14.42
2023-06-01T06:04:47.922Z,14.37
2023-06-01T06:07:00.538Z,14.34
2023-06-01T06:09:15.628Z,14.29
2023-06-01T06:11:28.289Z,14.29
2023-06-01T06:13:42.277Z,14.25
2023-06-01T06:15:55.933Z,14.20
2023-06-01T06:18:09.417Z,14.16
2023-06-01T06:20:24.167Z,14.12
2023-06-01T06:22:37.231Z,14.07
2023-06-01T06:24:49.833Z,14.02
2023-06-01T06:27:04.061Z,13.99
2023-06-01T06:29:17.151Z,13.94
2023-06-01T06:31:29.717Z,13.90
2023-06-01T06:33:42.391Z,13.85
2023-06-01T06:35:55.437Z,13.79
2023-06-01T06:38:08.469Z,13.74
2023-06-01T06:40:22.423Z,13.70
2023-06-01T06:42:35.209Z,13.65
2023-06-01T06:44:48.105Z,13.62
2023-06-01T06:47:03.122Z,13.59
2023-06-01T06:49:16.114Z,13.55
2023-06-01T06:51:28.745Z,13.50
2023-06-01T06:53:41.193Z,13.47
2023-06-01T06:55:53.851Z,13.43
2023-06-01T06:58:06.232Z,13.38
2023-06-01T07:00:20.931Z,13.34
2023-06-01T07:02:34.019Z,13.30
2023-06-01T07:04:46.902Z,13.24
2023-06-01T07:06:59.356Z,13.21
2023-06-01T07:09:12.135Z,13.15
2023-06-01T07:11:25.793Z,13.12
2023-06-01T07:13:38.487Z,13.07
2023-06-01T07:15:51.086Z,13.04
2023-06-01T07:18:03.803Z,13.00
2023-06-01T07:20:19.094Z,12.97
2023-06-01T07:22:31.849Z,12.92
2023-06-01T07:24:44.301Z,12.89
2023-06-01T07:26:57.735Z,12.84
2023-06-01T07:29:11.150Z,12.81
2023-06-01T07:31:23.654Z,12.77
2023-06-01T07:33:38.226Z,12.72
2023-06-01T07:35:55.155Z,12.69
2023-06-01T07:38:09.604Z,12.65
2023-06-01T07:40:22.410Z,12.61
2023-06-01T07:42:35.567Z,12.56
2023-06-01T07:44:49.506Z,12.53
2023-06-01T07:47:02.214Z,12.50
2023-06-01T07:49:16.005Z,12.46
2023-06-01T07:51:28.685Z,12.43
2023-06-01T07:53:42.135Z,12.40
2023-06-01T07:55:54.667Z,12.36
2023-06-01T07:58:09.481Z,12.32
2023-06-01T08:00:24.504Z,12.30
2023-06-01T08:02:37.115Z,12.26
2023-06-01T08:04:51.139Z,12.19
2023-06-01T08:07:05.269Z,12.20
2023-06-01T08:09:17.951Z,12.18
2023-06-01T08:11:31.732Z,12.14
2023-06-01T08:13:47.818Z,12.06
2023-06-01T08:16:01.915Z,12.08
2023-06-01T08:18:15.089Z,12.04
2023-06-01T08:20:28.732Z,12.01
2023-06-01T08:22:41.456Z,11.98
2023-06-01T08:24:55.167Z,11.93
2023-06-01T08:27:20.381Z,11.90
2023-06-01T08:29:42.474Z,11.86
2023-06-01T08:31:56.058Z,11.82
2023-06-01T08:34:09.220Z,11.79
2023-06-01T08:36:23.036Z,11.75
2023-06-01T08:38:35.822Z,11.75
2023-06-01T08:40:48.958Z,11.70
2023-06-01T08:43:09.240Z,11.69
2023-06-01T08:45:23.530Z,11.67
2023-06-01T08:47:37.020Z,11.64
2023-06-01T08:49:51.022Z,11.61
2023-06-01T08:52:04.820Z,11.57
2023-06-01T08:54:17.721Z,11.54
2023-06-01T08:56:31.574Z,11.52
2023-06-01T08:58:45.602Z,11.50
2023-06-01T09:00:59.406Z,11.50
2023-06-01T09:03:12.344Z,11.46
2023-06-01T09:05:25.898Z,11.44
2023-06-01T09:07:38.408Z,11.41
2023-06-01T09:09:51.793Z,11.38
2023-06-01T09:12:26.111Z,11.36
2023-06-01T09:14:38.641Z,11.33
2023-06-01T09:16:51.906Z,11.29
2023-06-01T09:19:04.948Z,11.28
2023-06-01T09:21:21.120Z,11.25
2023-06-01T09:23:34.198Z,11.23
2023-06-01T09:25:47.074Z,11.18
2023-06-01T09:28:01.036Z,11.19
2023-06-01T09:30:15.264Z,11.17
2023-06-01T09:32:28.350Z,11.15
2023-06-01T09:34:51.182Z,11.13
2023-06-01T09:37:09.340Z,11.11
2023-06-01T09:39:23.531Z,11.08
2023-06-01T09:41:51.358Z,11.05
2023-06-01T09:44:04.355Z,11.00
2023-06-01T09:46:17.614Z,10.95
2023-06-01T09:48:31.763Z,10.93
2023-06-01T09:50:45.107Z,10.89
2023-06-01T09:53:04.636Z,10.85
2023-06-01T09:55:17.810Z,10.79
2023-06-01T09:57:32.191Z,10.77
2023-06-01T09:59:49.156Z,10.73
2023-06-01T10:02:04.721Z,10.69
2023-06-01T10:04:22.865Z,10.67
2023-06-01T10:06:39.881Z,10.64
2023-06-01T10:08:54.306Z,10.60
2023-06-01T10:11:07.296Z,10.58
2023-06-01T10:13:20.108Z,10.55
2023-06-01T10:15:33.262Z,10.52
2023-06-01T10:17:47.214Z,10.50
2023-06-01T10:20:01.968Z,10.44
2023-06-01T10:22:15.540Z,10.41
2023-06-01T10:24:28.361Z,10.38
2023-06-01T10:26:46.471Z,10.36
2023-06-01T10:29:00.020Z,10.33
2023-06-01T10:31:39.536Z,10.32
2023-06-01T10:34:02.503Z,10.29
2023-06-01T10:36:15.299Z,10.27
2023-06-01T10:38:31.291Z,10.24
2023-06-01T10:40:44.948Z,10.21
2023-06-01T10:42:57.675Z,10.18
2023-06-01T10:45:24.763Z,10.15
2023-06-01T10:47:53.288Z,10.11
2023-06-01T10:50:23.926Z,10.07
2023-06-01T10:52:38.027Z,10.04
2023-06-01T10:54:51.315Z,10.00
2023-06-01T10:57:29.985Z,9.96
2023-06-01T10:59:42.768Z,9.91
2023-06-01T11:01:56.242Z,9.87
2023-06-01T11:04:09.757Z,9.85
2023-06-01T11:06:37.882Z,9.82
2023-06-01T11:09:01.708Z,9.80
2023-06-01T11:11:14.434Z,9.78
2023-06-01T11:13:29.522Z,9.77
2023-06-01T11:15:43.723Z,9.76
2023-06-01T11:17:58.485Z,9.75
2023-06-01T11:20:15.027Z,9.74
2023-06-01T11:22:30.474Z,9.72
2023-06-01T11:24:44.478Z,9.71
2023-06-01T11:26:57.420Z,9.68
2023-06-01T11:29:18.838Z,9.66
2023-06-01T11:31:38.046Z,9.64
2023-06-01T11:33:59.197Z,9.62
2023-06-01T11:36:12.616Z,9.58
2023-06-01T11:38:25.214Z,9.58
2023-06-01T11:40:40.231Z,9.55
2023-06-01T11:42:53.185Z,9.53
2023-06-01T11:45:07.233Z,9.51
2023-06-01T11:47:20.774Z,9.50
2023-06-01T11:49:34.218Z,9.49
2023-06-01T11:51:49.352Z,9.48
2023-06-01T11:54:04.816Z,9.45
2023-06-01T11:56:17.469Z,9.43
2023-06-01T11:58:31.958Z,9.38
2023-06-01T12:00:48.599Z,9.38
2023-06-01T12:03:13.892Z,9.35
2023-06-01T12:05:26.829Z,9.32
2023-06-01T12:07:50.270Z,9.29
2023-06-01T12:10:03.992Z,9.26
2023-06-01T12:12:18.432Z,9.23
2023-06-01T12:14:31.871Z,9.22
2023-06-01T12:17:03.249Z,9.20
2023-06-01T12:19:19.266Z,9.18
2023-06-01T12:21:31.998Z,9.14
2023-06-01T12:23:45.829Z,9.10
2023-06-01T12:26:01.187Z,9.08
2023-06-01T12:28:14.599Z,9.05
2023-06-01T12:30:30.613Z,9.02
2023-06-01T12:32:47.481Z,8.98
2023-06-01T12:35:14.555Z,8.95
2023-06-01T12:37:28.710Z,8.93
2023-06-01T12:39:43.665Z,8.91
2023-06-01T12:41:56.890Z,8.90
2023-06-01T12:44:10.169Z,8.87
2023-06-01T12:46:27.051Z,8.86
2023-06-01T12:48:40.972Z,8.85
2023-06-01T12:50:53.715Z,8.82
2023-06-01T12:53:06.837Z,8.80
2023-06-01T12:55:20.727Z,8.78
2023-06-01T12:57:35.562Z,8.77
2023-06-01T12:59:48.393Z,8.76
2023-06-01T13:02:01.108Z,8.76
2023-06-01T13:04:13.924Z,8.75
2023-06-01T13:06:26.786Z,8.75
2023-06-01T13:08:40.574Z,8.75
2023-06-01T13:10:53.934Z,8.74
2023-06-01T13:13:06.882Z,8.75
2023-06-01T13:15:20.575Z,8.75
2023-06-01T13:17:33.398Z,8.74
2023-06-01T13:19:46.497Z,8.75
2023-06-01T13:21:59.793Z,8.78
2023-06-01T13:24:12.998Z,8.78
2023-06-01T13:26:27.477Z,8.82
2023-06-01T13:28:40.607Z,8.86
2023-06-01T13:30:53.137Z,8.92
2023-06-01T13:33:06.376Z,8.97
2023-06-01T13:35:21.049Z,9.03
2023-06-01T13:37:33.803Z,9.09
2023-06-01T13:39:46.356Z,9.15
2023-06-01T13:42:03.143Z,9.22
2023-06-01T13:44:17.148Z,9.28
2023-06-01T13:46:30.006Z,9.34
2023-06-01T13:48:42.799Z,9.40
2023-06-01T13:50:56.017Z,9.46
2023-06-01T13:53:09.179Z,9.51
2023-06-01T13:55:23.666Z,9.57
2023-06-01T13:57:37.518Z,9.62
2023-06-01T13:59:50.539Z,9.68
2023-06-01T14:02:03.512Z,9.73
2023-06-01T14:04:17.284Z,9.77
2023-06-01T14:06:29.835Z,9.83
2023-06-01T14:08:42.775Z,9.88
2023-06-01T14:10:55.968Z,9.92
2023-06-01T14:13:09.565Z,9.97
2023-06-01T14:15:23.048Z,10.03
2023-06-01T14:17:36.569Z,10.09
2023-06-01T14:19:50.190Z,10.14
2023-06-01T14:22:02.827Z,10.22
2023-06-01T14:24:15.563Z,10.29
2023-06-01T14:26:28.537Z,10.38
2023-06-01T14:28:43.403Z,10.46
2023-06-01T14:30:56.343Z,10.53
2023-06-01T14:33:09.323Z,10.60
2023-06-01T14:35:22.969Z,10.65
2023-06-01T14:37:48.154Z,10.69
2023-06-01T14:40:01.526Z,10.75
2023-06-01T14:42:14.799Z,10.81
2023-06-01T14:44:27.356Z,10.86
2023-06-01T14:46:40.485Z,10.92
2023-06-01T14:48:53.362Z,10.98
2023-06-01T14:51:06.184Z,11.06
2023-06-01T14:53:20.062Z,11.11
2023-06-01T14:55:33.200Z,11.17
2023-06-01T14:57:47.333Z,11.23
2023-06-01T15:00:04.601Z,11.29
2023-06-01T15:02:17.834Z,11.36
2023-06-01T15:04:30.384Z,11.43
2023-06-01T15:06:44.065Z,11.50
2023-06-01T15:08:56.859Z,11.56
2023-06-01T15:11:11.645Z,11.63
2023-06-01T15:13:25.462Z,11.69
2023-06-01T15:15:38.835Z,11.76
2023-06-01T15:17:51.725Z,11.83
2023-06-01T15:20:04.823Z,11.90
2023-06-01T15:22:18.249Z,11.95
2023-06-01T15:24:30.826Z,12.01
2023-06-01T15:26:43.556Z,12.07
2023-06-01T15:28:56.381Z,12.12
2023-06-01T15:31:09.659Z,12.16
2023-06-01T15:33:22.388Z,12.21
2023-06-01T15:35:35.244Z,12.28
2023-06-01T15:37:47.841Z,12.38
2023-06-01T15:40:01.720Z,12.50
2023-06-01T15:42:15.516Z,12.63
2023-06-01T15:44:29.471Z,12.74
2023-06-01T15:46:42.684Z,12.89
2023-06-01T15:48:55.365Z,13.05
2023-06-01T15:51:09.231Z,13.21
2023-06-01T15:53:22.545Z,13.36
2023-06-01T15:55:35.479Z,13.53
2023-06-01T15:57:48.163Z,13.71
2023-06-01T16:00:01.003Z,13.93
2023-06-01T16:02:24.466Z,14.18
2023-06-01T16:04:37.422Z,14.41
2023-06-01T16:06:50.538Z,14.61
2023-06-01T16:09:03.073Z,14.80
2023-06-01T16:11:15.714Z,14.95
2023-06-01T16:13:28.754Z,15.01
2023-06-01T16:15:41.754Z,15.09
2023-06-01T16:17:54.243Z,15.12
2023-06-01T16:20:08.395Z,15.14
2023-06-01T16:22:21.259Z,15.12
2023-06-01T16:24:34.088Z,15.05
2023-06-01T16:26:47.012Z,14.97
2023-06-01T16:28:59.886Z,14.85
2023-06-01T16:31:12.861Z,14.79
2023-06-01T16:33:25.919Z,14.74
2023-06-01T16:35:40.341Z,14.69
2023-06-01T16:37:54.388Z,14.63
2023-06-01T16:40:07.730Z,14.59
2023-06-01T16:42:21.095Z,14.53
2023-06-01T16:44:33.869Z,14.51
2023-06-01T16:46:47.090Z,14.48
2023-06-01T16:49:00.537Z,14.45
2023-06-01T16:51:13.430Z,14.41
2023-06-01T16:53:26.143Z,14.39
2023-06-01T16:55:38.952Z,14.38
2023-06-01T16:57:52.122Z,14.39
2023-06-01T17:00:11.402Z,14.40
2023-06-01T17:05:04.579Z,14.43
2023-06-01T17:07:37.981Z,14.41
2023-06-01T17:09:51.999Z,14.40
2023-06-01T17:12:04.996Z,14.37
2023-06-01T17:14:18.505Z,14.38
2023-06-01T17:16:31.697Z,14.38
2023-06-01T17:18:44.738Z,14.35
2023-06-01T17:21:08.812Z,14.33
2023-06-01T17:23:41.579Z,14.31
2023-06-01T17:25:58.460Z,14.27
2023-06-01T17:28:31.693Z,14.23
2023-06-01T17:30:55.008Z,14.23
2023-06-01T17:33:08.341Z,14.24
2023-06-01T17:35:21.332Z,14.27
2023-06-01T17:37:37.735Z,14.29
2023-06-01T17:39:50.324Z,14.28
2023-06-01T17:42:03.044Z,14.24
2023-06-01T17:44:17.966Z,14.18
2023-06-01T17:46:31.499Z,14.17
2023-06-01T17:48:44.848Z,14.12
2023-06-01T17:51:07.617Z,14.17
2023-06-01T17:53:39.908Z,14.19
2023-06-01T17:55:56.757Z,14.27
2023-06-01T17:58:20.113Z,14.36
2023-06-01T18:00:43.353Z,14.44
2023-06-01T18:03:06.905Z,14.52
2023-06-01T18:05:20.117Z,14.58
2023-06-01T18:07:53.152Z,14.62
2023-06-01T18:10:12.152Z,14.68
2023-06-01T18:12:36.547Z,14.77
2023-06-01T18:14:49.637Z,14.83
2023-06-01T18:17:02.847Z,14.88
2023-06-01T18:19:18.833Z,14.95
2023-06-01T18:21:32.362Z,14.97
2023-06-01T18:23:48.881Z,15.03
2023-06-01T18:26:01.430Z,15.10
2023-06-01T18:28:17.735Z,15.27
2023-06-01T18:30:34.716Z,15.34
2023-06-01T18:32:47.648Z,15.36
2023-06-01T18:35:03.116Z,15.39
2023-06-01T18:37:19.179Z,15.44
2023-06-01T18:39:42.139Z,15.56
2023-06-01T18:42:05.805Z,15.74
2023-06-01T18:44:28.661Z,15.98
2023-06-01T18:47:01.760Z,16.24
2023-06-01T18:49:26.018Z,16.40
2023-06-01T18:51:59.095Z,16.53
2023-06-01T18:54:23.560Z,16.63
2023-06-01T18:56:56.646Z,16.73
2023-06-01T18:59:30.382Z,16.82
2023-06-01T19:01:46.476Z,16.97
2023-06-01T19:04:02.223Z,17.12
2023-06-01T19:06:16.242Z,17.25
2023-06-01T19:08:34.733Z,17.34
2023-06-01T19:11:05.117Z,17.44
2023-06-01T19:13:19.539Z,17.53
2023-06-01T19:15:35.921Z,17.60
2023-06-01T19:17:52.843Z,17.61
2023-06-01T19:20:53.056Z,17.52
2023-06-01T19:23:12.025Z,17.49
2023-06-01T19:25:44.217Z,17.54
2023-06-01T19:28:00.379Z,17.62
2023-06-01T19:30:17.961Z,17.65
2023-06-01T19:32:51.068Z,17.78
2023-06-01T19:35:24.543Z,17.80
2023-06-01T19:37:40.673Z,17.79
2023-06-01T19:39:58.406Z,17.86
2023-06-01T19:42:43.934Z,17.93
2023-06-01T19:45:08.405Z,18.04
2023-06-01T19:47:33.992Z,18.15
2023-06-01T19:49:56.232Z,18.28
2023-06-01T19:52:43.964Z,18.43
2023-06-01T19:55:01.386Z,18.52
2023-06-01T19:57:14.840Z,18.58
2023-06-01T19:59:48.032Z,18.65
2023-06-01T20:02:48.618Z,18.77
2023-06-01T20:05:15.912Z,18.88
2023-06-01T20:07:28.824Z,18.92
2023-06-01T20:09:42.037Z,18.87
2023-06-01T20:12:05.013Z,18.87
2023-06-01T20:14:34.280Z,18.96
2023-06-01T20:17:08.279Z,19.13
2023-06-01T20:19:41.358Z,19.23
2023-06-01T20:22:15.263Z,19.31
2023-06-01T20:24:34.379Z,19.36
2023-06-01T20:26:50.557Z,19.41
2023-06-01T20:29:18.658Z,19.48
2023-06-01T20:31:42.370Z,19.50
2023-06-01T20:34:13.277Z,19.53
2023-06-01T20:36:33.005Z,19.53
2023-06-01T20:38:55.985Z,19.54
2023-06-01T20:41:24.646Z,19.59
2023-06-01T20:43:50.113Z,19.63
2023-06-01T20:46:26.254Z,19.73
2023-06-01T20:48:47.680Z,19.83
2023-06-01T20:51:06.507Z,19.89
2023-06-01T20:53:39.060Z,19.97
2023-06-01T20:55:55.209Z,20.09
2023-06-01T20:58:12.278Z,20.21
2023-06-01T21:00:36.121Z,20.29
2023-06-01T21:02:55.318Z,20.29
2023-06-01T21:05:13.290Z,20.26
2023-06-01T21:07:39.981Z,20.28
2023-06-01T21:10:14.173Z,20.29
2023-06-01T21:12:50.205Z,20.35
2023-06-01T21:15:06.438Z,20.43
2023-06-01T21:17:19.689Z,20.50
2023-06-01T21:19:52.641Z,20.54
2023-06-01T21:22:09.645Z,20.52
2023-06-01T21:24:32.791Z,20.51
2023-06-01T21:27:05.835Z,20.52
2023-06-01T21:29:18.777Z,20.53
2023-06-01T21:31:34.500Z,20.54
2023-06-01T21:33:48.521Z,20.57
2023-06-01T21:36:12.287Z,20.59
2023-06-01T21:38:26.078Z,20.59
2023-06-01T21:40:42.359Z,20.60
2023-06-01T21:43:15.290Z,20.61
2023-06-01T21:45:39.493Z,20.57
2023-06-01T21:47:52.840Z,20.55
2023-06-01T21:50:26.886Z,20.57
2023-06-01T21:52:42.860Z,20.62
2023-06-01T21:54:59.612Z,20.66
2023-06-01T21:57:12.771Z,20.69
2023-06-01T21:59:45.918Z,20.72
2023-06-01T22:02:19.470Z,20.69
2023-06-01T22:04:35.820Z,20.74
2023-06-01T22:07:10.534Z,20.78
2023-06-01T22:09:34.301Z,20.77
2023-06-01T22:12:07.706Z,20.79
2023-06-01T22:14:30.380Z,20.86
2023-06-01T22:16:55.708Z,20.98
2023-06-01T22:19:19.303Z,21.07
2023-06-01T22:21:42.804Z,21.05
2023-06-01T22:23:56.101Z,21.11
2023-06-01T22:26:19.670Z,21.25
2023-06-01T22:28:32.629Z,21.43
2023-06-01T22:30:45.853Z,21.58
2023-06-01T22:32:59.444Z,21.70
2023-06-01T22:35:16.790Z,21.83
2023-06-01T22:37:29.989Z,22.00
2023-06-01T22:40:02.807Z,22.14
2023-06-01T22:42:19.131Z,22.19
2023-06-01T22:44:33.120Z,22.26
2023-06-01T22:46:46.178Z,22.38
2023-06-01T22:49:11.978Z,22.51
2023-06-01T22:51:44.555Z,22.64
2023-06-01T22:54:09.157Z,22.78
2023-06-01T22:56:32.470Z,22.87
2023-06-01T22:58:45.280Z,22.97
2023-06-01T23:00:58.067Z,23.00
2023-06-01T23:03:25.676Z,23.05
2023-06-01T23:05:41.920Z,23.10
2023-06-01T23:08:21.767Z,23.12
2023-06-01T23:10:51.642Z,23.09
2023-06-01T23:13:16.623Z,23.05
2023-06-01T23:15:51.335Z,23.08
2023-06-01T23:18:05.356Z,23.13
2023-06-01T23:20:18.998Z,23.14
2023-06-01T23:22:42.287Z,23.11
2023-06-01T23:24:59.487Z,23.12
2023-06-01T23:27:19.978Z,23.13
2023-06-01T23:29:53.727Z,23.18
2023-06-01T23:32:16.928Z,23.23
2023-06-01T23:34:39.377Z,23.29
2023-06-01T23:36:54.877Z,23.35
2023-06-01T23:39:17.785Z,23.41
2023-06-01T23:41:34.661Z,23.45
2023-06-01T23:44:07.877Z,23.49
2023-06-01T23:46:24.250Z,23.52
2023-06-01T23:48:58.097Z,23.54
2023-06-01T23:51:10.953Z,23.59
2023-06-01T23:53:23.915Z,23.62
2023-06-01T23:55:37.730Z,23.64
2023-06-01T23:57:50.990Z,23.66
